Terminal Aerodrome Forecast
Issued by NWS Mobile, AL

Home | Current Version | Previous Version | Text Only | Print | Product List | Glossary On
Versions: 1 2 3 4 5 6 7 8 9 10 11 12 13 14 15 16 17 18 19 20 21 22 23 24 25 26
000
FTUS44 KMOB 230500
TAFMOB
TAF
KMOB 230535Z 2306/2406 09012KT 6SM BR OVC006
     FM231000 10012G17KT 5SM -SHRA BR OVC007
     FM231300 13015G24KT 4SM TSRA OVC004CB
     FM231900 20015G25KT P6SM VCSH BKN025=

USA.gov is the U.S. government's official web portal to all federal, state and local government web resources and services.